Parma, ID (83660)

5:23 AM MDT on October 24, 2014 (GMT -0600)
Owyhee Junction | Change Station
CLOSE
Current Station
Personal Weather Station
Location: Nyssa, OR
Elevation: 2210 ft
Nearby Weather Stations

Elev 2210 ft 43.79 °N, 117.10 °W | Updated 8 minutes ago

Mostly Cloudy
Mostly Cloudy
51.1 °F
Feels Like 51.1 °F
N
0.0
Wind Variable Wind from ESE

Today
High -- | Low -- °F
--% Chance of Precip.
Yesterday
High -- | Low -- °F
Precip. -- in
8:13 AM 6:49 PM
New Moon, 0% visible
Pressure 30.10 in
Visibility 8.0 miles
Clouds Overcast 6500 ft
Dew Point 50 °F
Humidity 95%
Rainfall 0.00 in
Snow Depth Not available.
UV 0 out of 12
Pollen 1.40 out of 12
Ozone Good
PM2.5 Good
Flu Activity Sporadic
METAR KONO 241053Z AUTO 00000KT 8SM -RA OVC065 11/10 A3009 RMK AO2 SLP191 P0002 T01060100

More Conditions Fewer Conditions

Pressure 30.10 in
Visibility 8.0 miles
Clouds Overcast 6500 ft
Dew Point 50 °F
Humidity 95%
Rainfall 0.00 in
Snow Depth Not available.
UV 0 out of 12
Pollen 1.40 out of 12
Ozone Good
PM2.5 Good
Flu Activity Sporadic
METAR KONO 241053Z AUTO 00000KT 8SM -RA OVC065 11/10 A3009 RMK AO2 SLP191 P0002 T01060100

More Conditions Fewer Conditions

10-Day Weather Forecast

Almanac

Astronomy

Oct. 24, 2014 Rise Set
Actual Time 8:13 AM MDT 6:49 PM MDT
Civil Twilight 7:44 AM MDT 7:19 PM MDT
Nautical Twilight 7:10 AM MDT 7:52 PM MDT
Astronomical Twilight 6:37 AM MDT 8:25 PM MDT
Moon 8:58 AM MDT 7:31 PM MDT
Length of Visible Light 11h 34m
Length of Day
10h 36m
Tomorrow will be 2m 48s shorter.
New Moon, 0% of the Moon is Illuminated
Today
New Moon
Oct 30
First Quarter
Nov 6
Full
Nov 14
Last Quarter
Nov 22
New

Today's Extremes

State Highs State Lows

Community

WunderPhotos

Upload Photos

1,764,525 photos uploaded!

WunderBlogs® & News

Nearby

Air Quality

  Air Quality AQ Index Pollutant
Yesterday Good
OZONE
Yesterday Good
PM10
Current Good
PM2.5
Current Good
OZONE
Friday Good
OZONE
Saturday Good
OZONE

Snow Depth

Station Depth Elevation
Bogus Basin 0 in 6340 ft
Van Wyck 0 in 4920 ft
South Mountain 0 in 6500 ft
Cozy Cove 0 in 5380 ft
Trinity Mountain 2 in 7770 ft

Earthquake Activity

City Distance Mag. Time & Date
No recent earthquake activity has been reported nearby.
Minimum magnitude displayed is 2.5.

Coastal Water Temperatures

Place Temperature
No Stations Reporting

Nearby Weather Stations